sensor_id;sensor_type;location;lat;lon;timestamp;P1;durP1;ratioP1;P2;durP2;ratioP2
47021;SDS011;32779;52.264;6.154;2023-07-20T00:04:00;40.58;;;22.45;;
47021;SDS011;32779;52.264;6.154;2023-07-20T00:08:55;37.72;;;22.48;;
47021;SDS011;32779;52.264;6.154;2023-07-20T00:11:24;42.30;;;18.38;;
47021;SDS011;32779;52.264;6.154;2023-07-20T00:13:51;39.25;;;14.85;;
47021;SDS011;32779;52.264;6.154;2023-07-20T00:18:42;37.92;;;21.63;;
47021;SDS011;32779;52.264;6.154;2023-07-20T00:23:34;43.42;;;21.33;;
47021;SDS011;32779;52.264;6.154;2023-07-20T00:28:25;38.50;;;21.67;;
47021;SDS011;32779;52.264;6.154;2023-07-20T00:33:16;43.63;;;20.52;;
47021;SDS011;32779;52.264;6.154;2023-07-20T00:35:43;39.10;;;14.25;;
47021;SDS011;32779;52.264;6.154;2023-07-20T00:40:39;35.10;;;9.93;;
47021;SDS011;32779;52.264;6.154;2023-07-20T00:43:06;40.45;;;20.42;;
47021;SDS011;32779;52.264;6.154;2023-07-20T00:45:32;37.90;;;13.65;;
47021;SDS011;32779;52.264;6.154;2023-07-20T00:47:59;37.60;;;12.88;;
47021;SDS011;32779;52.264;6.154;2023-07-20T00:50:26;38.72;;;16.67;;
47021;SDS011;32779;52.264;6.154;2023-07-20T00:52:54;39.70;;;13.00;;
47021;SDS011;32779;52.264;6.154;2023-07-20T00:55:21;36.25;;;12.73;;
47021;SDS011;32779;52.264;6.154;2023-07-20T00:57:48;38.08;;;10.80;;
47021;SDS011;32779;52.264;6.154;2023-07-20T01:00:15;35.67;;;13.77;;
47021;SDS011;32779;52.264;6.154;2023-07-20T01:05:06;34.53;;;15.65;;
47021;SDS011;32779;52.264;6.154;2023-07-20T01:07:42;36.47;;;12.98;;
47021;SDS011;32779;52.264;6.154;2023-07-20T01:10:32;35.13;;;14.98;;
47021;SDS011;32779;52.264;6.154;2023-07-20T01:13:04;38.53;;;16.52;;
47021;SDS011;32779;52.264;6.154;2023-07-20T01:15:33;36.95;;;13.73;;
47021;SDS011;32779;52.264;6.154;2023-07-20T01:17:59;39.72;;;13.95;;
47021;SDS011;32779;52.264;6.154;2023-07-20T01:20:26;35.90;;;14.88;;
47021;SDS011;32779;52.264;6.154;2023-07-20T01:28:35;33.33;;;15.32;;
47021;SDS011;32779;52.264;6.154;2023-07-20T01:34:18;33.30;;;13.10;;
47021;SDS011;32779;52.264;6.154;2023-07-20T01:36:44;34.75;;;9.88;;
47021;SDS011;32779;52.264;6.154;2023-07-20T01:39:13;36.15;;;14.20;;
47021;SDS011;32779;52.264;6.154;2023-07-20T01:41:39;36.22;;;14.98;;
47021;SDS011;32779;52.264;6.154;2023-07-20T01:46:30;39.20;;;18.10;;
47021;SDS011;32779;52.264;6.154;2023-07-20T01:51:22;39.08;;;16.10;;
47021;SDS011;32779;52.264;6.154;2023-07-20T01:56:13;36.17;;;16.15;;
47021;SDS011;32779;52.264;6.154;2023-07-20T02:01:04;32.63;;;13.77;;
47021;SDS011;32779;52.264;6.154;2023-07-20T02:05:55;33.72;;;17.05;;
47021;SDS011;32779;52.264;6.154;2023-07-20T02:08:24;37.45;;;16.42;;
47021;SDS011;32779;52.264;6.154;2023-07-20T02:13:15;35.80;;;18.20;;
47021;SDS011;32779;52.264;6.154;2023-07-20T02:15:41;34.80;;;11.82;;
47021;SDS011;32779;52.264;6.154;2023-07-20T02:18:07;33.10;;;10.60;;
47021;SDS011;32779;52.264;6.154;2023-07-20T02:20:34;29.33;;;10.23;;
47021;SDS011;32779;52.264;6.154;2023-07-20T02:23:01;33.05;;;9.98;;
47021;SDS011;32779;52.264;6.154;2023-07-20T02:25:27;34.92;;;9.60;;
47021;SDS011;32779;52.264;6.154;2023-07-20T02:30:18;30.83;;;10.38;;
47021;SDS011;32779;52.264;6.154;2023-07-20T02:35:10;35.87;;;10.10;;
47021;SDS011;32779;52.264;6.154;2023-07-20T02:40:02;30.67;;;14.43;;
47021;SDS011;32779;52.264;6.154;2023-07-20T02:42:29;30.83;;;12.13;;
47021;SDS011;32779;52.264;6.154;2023-07-20T02:44:55;32.88;;;11.43;;
47021;SDS011;32779;52.264;6.154;2023-07-20T02:49:46;31.00;;;13.77;;
47021;SDS011;32779;52.264;6.154;2023-07-20T02:54:37;33.03;;;15.80;;
47021;SDS011;32779;52.264;6.154;2023-07-20T02:57:03;31.27;;;13.27;;
47021;SDS011;32779;52.264;6.154;2023-07-20T03:01:54;31.63;;;15.13;;
47021;SDS011;32779;52.264;6.154;2023-07-20T03:06:46;33.47;;;13.38;;
47021;SDS011;32779;52.264;6.154;2023-07-20T03:11:37;34.65;;;13.50;;
47021;SDS011;32779;52.264;6.154;2023-07-20T03:16:29;33.30;;;17.05;;
47021;SDS011;32779;52.264;6.154;2023-07-20T03:18:57;33.95;;;12.90;;
47021;SDS011;32779;52.264;6.154;2023-07-20T03:21:24;37.00;;;16.90;;
47021;SDS011;32779;52.264;6.154;2023-07-20T03:23:50;39.10;;;13.80;;
47021;SDS011;32779;52.264;6.154;2023-07-20T03:28:41;35.72;;;19.00;;
47021;SDS011;32779;52.264;6.154;2023-07-20T03:33:32;33.08;;;15.45;;
47021;SDS011;32779;52.264;6.154;2023-07-20T03:35:59;36.05;;;17.25;;
47021;SDS011;32779;52.264;6.154;2023-07-20T03:38:25;38.10;;;12.70;;
47021;SDS011;32779;52.264;6.154;2023-07-20T03:40:52;35.53;;;14.15;;
47021;SDS011;32779;52.264;6.154;2023-07-20T03:43:19;35.50;;;13.48;;
47021;SDS011;32779;52.264;6.154;2023-07-20T03:45:45;14.25;;;9.65;;
47021;SDS011;32779;52.264;6.154;2023-07-20T03:48:12;11.50;;;9.48;;
47021;SDS011;32779;52.264;6.154;2023-07-20T03:50:43;11.55;;;10.43;;
47021;SDS011;32779;52.264;6.154;2023-07-20T03:53:10;9.88;;;7.05;;
47021;SDS011;32779;52.264;6.154;2023-07-20T03:55:35;8.30;;;7.32;;
47021;SDS011;32779;52.264;6.154;2023-07-20T03:58:01;11.35;;;9.82;;
47021;SDS011;32779;52.264;6.154;2023-07-20T04:00:27;7.75;;;7.00;;
47021;SDS011;32779;52.264;6.154;2023-07-20T04:02:52;11.68;;;10.48;;
47021;SDS011;32779;52.264;6.154;2023-07-20T04:05:18;10.70;;;8.65;;
47021;SDS011;32779;52.264;6.154;2023-07-20T04:07:44;12.48;;;10.60;;
47021;SDS011;32779;52.264;6.154;2023-07-20T04:12:35;12.65;;;11.35;;
47021;SDS011;32779;52.264;6.154;2023-07-20T04:15:01;13.13;;;11.77;;
47021;SDS011;32779;52.264;6.154;2023-07-20T04:17:29;11.00;;;9.93;;
47021;SDS011;32779;52.264;6.154;2023-07-20T04:19:54;10.40;;;8.40;;
47021;SDS011;32779;52.264;6.154;2023-07-20T04:24:46;11.18;;;10.02;;
47021;SDS011;32779;52.264;6.154;2023-07-20T04:27:11;13.82;;;10.00;;
47021;SDS011;32779;52.264;6.154;2023-07-20T04:29:37;10.00;;;6.88;;
47021;SDS011;32779;52.264;6.154;2023-07-20T04:32:03;5.57;;;5.00;;
47021;SDS011;32779;52.264;6.154;2023-07-20T04:34:28;10.15;;;7.78;;
47021;SDS011;32779;52.264;6.154;2023-07-20T04:39:20;9.27;;;8.32;;
47021;SDS011;32779;52.264;6.154;2023-07-20T04:44:11;10.65;;;9.30;;
47021;SDS011;32779;52.264;6.154;2023-07-20T04:46:38;8.57;;;7.45;;
47021;SDS011;32779;52.264;6.154;2023-07-20T04:49:05;10.93;;;8.60;;
47021;SDS011;32779;52.264;6.154;2023-07-20T04:51:31;9.90;;;7.60;;
47021;SDS011;32779;52.264;6.154;2023-07-20T04:53:56;13.40;;;9.77;;
47021;SDS011;32779;52.264;6.154;2023-07-20T04:56:24;10.90;;;8.70;;
47021;SDS011;32779;52.264;6.154;2023-07-20T05:01:15;12.45;;;9.23;;
47021;SDS011;32779;52.264;6.154;2023-07-20T05:03:41;15.05;;;9.13;;
47021;SDS011;32779;52.264;6.154;2023-07-20T05:08:32;12.43;;;8.10;;
47021;SDS011;32779;52.264;6.154;2023-07-20T05:10:59;10.25;;;7.03;;
47021;SDS011;32779;52.264;6.154;2023-07-20T05:13:25;10.35;;;8.02;;
47021;SDS011;32779;52.264;6.154;2023-07-20T05:15:51;7.38;;;6.65;;
47021;SDS011;32779;52.264;6.154;2023-07-20T05:18:17;9.30;;;6.03;;
47021;SDS011;32779;52.264;6.154;2023-07-20T05:20:47;8.88;;;6.57;;
47021;SDS011;32779;52.264;6.154;2023-07-20T05:23:13;7.68;;;6.40;;
47021;SDS011;32779;52.264;6.154;2023-07-20T05:25:39;6.82;;;4.60;;
47021;SDS011;32779;52.264;6.154;2023-07-20T05:30:31;5.80;;;5.25;;
47021;SDS011;32779;52.264;6.154;2023-07-20T05:32:56;4.20;;;3.85;;
47021;SDS011;32779;52.264;6.154;2023-07-20T05:35:22;5.80;;;4.80;;
47021;SDS011;32779;52.264;6.154;2023-07-20T05:37:48;6.07;;;4.65;;
47021;SDS011;32779;52.264;6.154;2023-07-20T05:40:14;4.55;;;4.15;;
47021;SDS011;32779;52.264;6.154;2023-07-20T05:42:43;5.38;;;4.88;;
47021;SDS011;32779;52.264;6.154;2023-07-20T05:45:10;4.60;;;4.18;;
47021;SDS011;32779;52.264;6.154;2023-07-20T05:47:35;6.32;;;4.32;;
47021;SDS011;32779;52.264;6.154;2023-07-20T05:50:01;6.25;;;4.20;;
47021;SDS011;32779;52.264;6.154;2023-07-20T05:54:52;3.80;;;3.50;;
47021;SDS011;32779;52.264;6.154;2023-07-20T05:57:18;3.45;;;3.15;;
47021;SDS011;32779;52.264;6.154;2023-07-20T06:02:09;5.15;;;3.78;;
47021;SDS011;32779;52.264;6.154;2023-07-20T06:04:36;2.70;;;2.50;;
47021;SDS011;32779;52.264;6.154;2023-07-20T06:07:02;6.05;;;4.03;;
47021;SDS011;32779;52.264;6.154;2023-07-20T06:11:54;4.15;;;2.67;;
47021;SDS011;32779;52.264;6.154;2023-07-20T06:16:45;2.83;;;2.53;;
47021;SDS011;32779;52.264;6.154;2023-07-20T06:19:11;4.72;;;1.88;;
47021;SDS011;32779;52.264;6.154;2023-07-20T06:24:02;2.95;;;2.67;;
47021;SDS011;32779;52.264;6.154;2023-07-20T06:28:55;2.80;;;2.40;;
47021;SDS011;32779;52.264;6.154;2023-07-20T06:33:46;5.35;;;2.65;;
47021;SDS011;32779;52.264;6.154;2023-07-20T06:38:37;8.50;;;4.82;;
47021;SDS011;32779;52.264;6.154;2023-07-20T06:43:29;5.65;;;1.63;;
47021;SDS011;32779;52.264;6.154;2023-07-20T06:48:20;5.20;;;4.70;;
47021;SDS011;32779;52.264;6.154;2023-07-20T06:50:46;3.08;;;2.75;;
47021;SDS011;32779;52.264;6.154;2023-07-20T06:55:37;3.17;;;2.88;;
47021;SDS011;32779;52.264;6.154;2023-07-20T07:00:29;6.00;;;4.72;;
47021;SDS011;32779;52.264;6.154;2023-07-20T07:05:20;4.30;;;3.60;;
47021;SDS011;32779;52.264;6.154;2023-07-20T07:07:46;3.92;;;3.63;;
47021;SDS011;32779;52.264;6.154;2023-07-20T07:12:37;5.22;;;3.80;;
47021;SDS011;32779;52.264;6.154;2023-07-20T07:15:03;2.83;;;2.63;;
47021;SDS011;32779;52.264;6.154;2023-07-20T07:17:31;2.92;;;2.45;;
47021;SDS011;32779;52.264;6.154;2023-07-20T07:19:57;3.88;;;3.50;;
47021;SDS011;32779;52.264;6.154;2023-07-20T07:22:23;6.95;;;3.90;;
47021;SDS011;32779;52.264;6.154;2023-07-20T07:24:49;6.85;;;6.15;;
47021;SDS011;32779;52.264;6.154;2023-07-20T07:27:14;6.57;;;5.45;;
47021;SDS011;32779;52.264;6.154;2023-07-20T07:29:44;8.80;;;7.97;;
47021;SDS011;32779;52.264;6.154;2023-07-20T07:32:09;7.90;;;7.18;;
47021;SDS011;32779;52.264;6.154;2023-07-20T07:34:36;7.05;;;6.43;;
47021;SDS011;32779;52.264;6.154;2023-07-20T07:37:02;7.85;;;7.15;;
47021;SDS011;32779;52.264;6.154;2023-07-20T07:39:29;6.05;;;5.50;;
47021;SDS011;32779;52.264;6.154;2023-07-20T07:41:55;7.45;;;6.75;;
47021;SDS011;32779;52.264;6.154;2023-07-20T07:44:21;5.93;;;5.43;;
47021;SDS011;32779;52.264;6.154;2023-07-20T07:46:47;8.05;;;7.43;;
47021;SDS011;32779;52.264;6.154;2023-07-20T07:49:13;7.93;;;7.18;;
47021;SDS011;32779;52.264;6.154;2023-07-20T07:51:39;5.60;;;5.05;;
47021;SDS011;32779;52.264;6.154;2023-07-20T07:54:06;7.40;;;6.82;;
47021;SDS011;32779;52.264;6.154;2023-07-20T07:56:32;10.27;;;9.50;;
47021;SDS011;32779;52.264;6.154;2023-07-20T07:58:57;9.93;;;9.15;;
47021;SDS011;32779;52.264;6.154;2023-07-20T08:01:23;10.73;;;9.63;;
47021;SDS011;32779;52.264;6.154;2023-07-20T08:03:48;11.40;;;10.35;;
47021;SDS011;32779;52.264;6.154;2023-07-20T08:06:14;10.77;;;10.02;;
47021;SDS011;32779;52.264;6.154;2023-07-20T08:08:40;9.18;;;8.52;;
47021;SDS011;32779;52.264;6.154;2023-07-20T08:11:07;10.38;;;9.48;;
47021;SDS011;32779;52.264;6.154;2023-07-20T08:13:33;8.55;;;7.72;;
47021;SDS011;32779;52.264;6.154;2023-07-20T08:16:00;8.38;;;7.50;;
47021;SDS011;32779;52.264;6.154;2023-07-20T08:18:27;9.43;;;8.77;;
47021;SDS011;32779;52.264;6.154;2023-07-20T08:20:53;8.75;;;7.95;;
47021;SDS011;32779;52.264;6.154;2023-07-20T08:23:19;10.75;;;9.95;;
47021;SDS011;32779;52.264;6.154;2023-07-20T08:25:45;9.55;;;8.82;;
47021;SDS011;32779;52.264;6.154;2023-07-20T08:28:11;7.60;;;6.85;;
47021;SDS011;32779;52.264;6.154;2023-07-20T08:30:39;8.63;;;7.97;;
47021;SDS011;32779;52.264;6.154;2023-07-20T08:33:09;10.77;;;9.93;;
47021;SDS011;32779;52.264;6.154;2023-07-20T08:35:36;27.08;;;14.45;;
47021;SDS011;32779;52.264;6.154;2023-07-20T08:38:02;30.92;;;18.13;;
47021;SDS011;32779;52.264;6.154;2023-07-20T08:40:29;34.85;;;20.35;;
47021;SDS011;32779;52.264;6.154;2023-07-20T08:42:59;32.42;;;16.23;;
47021;SDS011;32779;52.264;6.154;2023-07-20T08:45:28;33.72;;;19.85;;
47021;SDS011;32779;52.264;6.154;2023-07-20T08:47:56;34.45;;;18.58;;
47021;SDS011;32779;52.264;6.154;2023-07-20T08:50:23;33.70;;;20.20;;
47021;SDS011;32779;52.264;6.154;2023-07-20T08:52:55;33.38;;;17.83;;
47021;SDS011;32779;52.264;6.154;2023-07-20T08:55:23;31.67;;;16.38;;
47021;SDS011;32779;52.264;6.154;2023-07-20T08:57:51;29.38;;;15.15;;
47021;SDS011;32779;52.264;6.154;2023-07-20T09:00:19;32.40;;;17.20;;
47021;SDS011;32779;52.264;6.154;2023-07-20T09:02:46;31.25;;;15.00;;
47021;SDS011;32779;52.264;6.154;2023-07-20T09:05:17;29.10;;;15.20;;
47021;SDS011;32779;52.264;6.154;2023-07-20T09:07:43;28.77;;;17.83;;
47021;SDS011;32779;52.264;6.154;2023-07-20T09:10:08;32.83;;;19.38;;
47021;SDS011;32779;52.264;6.154;2023-07-20T09:12:35;37.78;;;18.92;;
47021;SDS011;32779;52.264;6.154;2023-07-20T09:15:03;36.08;;;21.23;;
47021;SDS011;32779;52.264;6.154;2023-07-20T09:17:29;35.78;;;23.02;;
47021;SDS011;32779;52.264;6.154;2023-07-20T09:19:55;29.08;;;17.25;;
47021;SDS011;32779;52.264;6.154;2023-07-20T09:22:21;33.25;;;21.42;;
47021;SDS011;32779;52.264;6.154;2023-07-20T09:24:46;29.80;;;15.50;;
47021;SDS011;32779;52.264;6.154;2023-07-20T09:27:12;33.53;;;20.50;;
47021;SDS011;32779;52.264;6.154;2023-07-20T09:29:48;33.13;;;19.52;;
47021;SDS011;32779;52.264;6.154;2023-07-20T09:34:43;32.97;;;21.55;;
47021;SDS011;32779;52.264;6.154;2023-07-20T09:37:09;33.88;;;20.02;;
47021;SDS011;32779;52.264;6.154;2023-07-20T09:39:41;32.40;;;21.20;;
47021;SDS011;32779;52.264;6.154;2023-07-20T09:44:38;35.53;;;22.15;;
47021;SDS011;32779;52.264;6.154;2023-07-20T09:47:04;33.05;;;20.30;;
47021;SDS011;32779;52.264;6.154;2023-07-20T09:49:30;31.80;;;17.88;;
47021;SDS011;32779;52.264;6.154;2023-07-20T09:51:57;32.35;;;21.92;;
47021;SDS011;32779;52.264;6.154;2023-07-20T09:54:25;34.88;;;18.50;;
47021;SDS011;32779;52.264;6.154;2023-07-20T09:56:53;39.63;;;24.42;;
47021;SDS011;32779;52.264;6.154;2023-07-20T09:59:19;34.30;;;21.70;;
47021;SDS011;32779;52.264;6.154;2023-07-20T10:01:45;33.63;;;21.52;;
47021;SDS011;32779;52.264;6.154;2023-07-20T10:04:12;36.58;;;24.00;;
47021;SDS011;32779;52.264;6.154;2023-07-20T10:06:42;35.75;;;23.70;;
47021;SDS011;32779;52.264;6.154;2023-07-20T10:09:09;37.55;;;22.73;;
47021;SDS011;32779;52.264;6.154;2023-07-20T10:11:37;34.72;;;19.25;;
47021;SDS011;32779;52.264;6.154;2023-07-20T10:14:09;34.25;;;20.98;;
47021;SDS011;32779;52.264;6.154;2023-07-20T10:16:43;34.17;;;21.90;;
47021;SDS011;32779;52.264;6.154;2023-07-20T10:22:12;33.63;;;20.17;;
47021;SDS011;32779;52.264;6.154;2023-07-20T10:24:41;34.17;;;20.98;;
47021;SDS011;32779;52.264;6.154;2023-07-20T10:27:09;34.08;;;22.15;;
47021;SDS011;32779;52.264;6.154;2023-07-20T10:29:35;31.40;;;21.30;;
47021;SDS011;32779;52.264;6.154;2023-07-20T10:32:03;32.63;;;17.90;;
47021;SDS011;32779;52.264;6.154;2023-07-20T10:34:29;33.28;;;20.27;;
47021;SDS011;32779;52.264;6.154;2023-07-20T10:36:55;34.33;;;21.17;;
47021;SDS011;32779;52.264;6.154;2023-07-20T10:39:24;34.78;;;20.33;;
47021;SDS011;32779;52.264;6.154;2023-07-20T10:41:59;33.50;;;20.63;;
47021;SDS011;32779;52.264;6.154;2023-07-20T10:44:25;32.90;;;20.88;;
47021;SDS011;32779;52.264;6.154;2023-07-20T10:46:51;32.53;;;19.23;;
47021;SDS011;32779;52.264;6.154;2023-07-20T10:49:28;37.40;;;19.33;;
47021;SDS011;32779;52.264;6.154;2023-07-20T10:51:58;39.30;;;22.15;;
47021;SDS011;32779;52.264;6.154;2023-07-20T10:56:50;37.05;;;24.45;;
47021;SDS011;32779;52.264;6.154;2023-07-20T11:01:59;35.67;;;24.13;;
47021;SDS011;32779;52.264;6.154;2023-07-20T11:04:40;36.22;;;19.25;;
47021;SDS011;32779;52.264;6.154;2023-07-20T11:07:06;34.83;;;19.75;;
47021;SDS011;32779;52.264;6.154;2023-07-20T11:09:36;35.03;;;23.70;;
47021;SDS011;32779;52.264;6.154;2023-07-20T11:12:10;38.13;;;21.90;;
47021;SDS011;32779;52.264;6.154;2023-07-20T11:14:40;35.75;;;24.65;;
47021;SDS011;32779;52.264;6.154;2023-07-20T11:17:13;35.83;;;20.05;;
47021;SDS011;32779;52.264;6.154;2023-07-20T11:19:40;36.58;;;22.45;;
47021;SDS011;32779;52.264;6.154;2023-07-20T11:22:07;41.25;;;21.65;;
47021;SDS011;32779;52.264;6.154;2023-07-20T11:24:33;40.08;;;19.23;;
47021;SDS011;32779;52.264;6.154;2023-07-20T11:26:58;41.70;;;23.48;;
47021;SDS011;32779;52.264;6.154;2023-07-20T11:29:26;42.50;;;22.00;;
47021;SDS011;32779;52.264;6.154;2023-07-20T11:31:51;37.50;;;24.83;;
47021;SDS011;32779;52.264;6.154;2023-07-20T11:34:17;35.95;;;20.77;;
47021;SDS011;32779;52.264;6.154;2023-07-20T11:36:45;36.40;;;18.27;;
47021;SDS011;32779;52.264;6.154;2023-07-20T11:39:13;34.05;;;20.10;;
47021;SDS011;32779;52.264;6.154;2023-07-20T11:41:44;34.33;;;17.42;;
47021;SDS011;32779;52.264;6.154;2023-07-20T11:44:15;33.53;;;19.52;;
47021;SDS011;32779;52.264;6.154;2023-07-20T11:46:42;34.80;;;16.63;;
47021;SDS011;32779;52.264;6.154;2023-07-20T11:49:09;36.15;;;18.13;;
47021;SDS011;32779;52.264;6.154;2023-07-20T11:51:35;31.50;;;15.70;;
47021;SDS011;32779;52.264;6.154;2023-07-20T11:54:03;38.35;;;19.88;;
47021;SDS011;32779;52.264;6.154;2023-07-20T11:56:29;30.45;;;18.55;;
47021;SDS011;32779;52.264;6.154;2023-07-20T11:58:56;32.25;;;15.23;;
47021;SDS011;32779;52.264;6.154;2023-07-20T12:01:24;32.50;;;17.15;;
47021;SDS011;32779;52.264;6.154;2023-07-20T12:03:54;30.65;;;17.70;;
47021;SDS011;32779;52.264;6.154;2023-07-20T12:06:24;29.30;;;14.90;;
47021;SDS011;32779;52.264;6.154;2023-07-20T12:08:54;30.83;;;15.80;;
47021;SDS011;32779;52.264;6.154;2023-07-20T12:11:57;30.13;;;16.65;;
47021;SDS011;32779;52.264;6.154;2023-07-20T12:14:16;26.95;;;17.25;;
47021;SDS011;32779;52.264;6.154;2023-07-20T12:16:41;25.75;;;14.98;;
47021;SDS011;32779;52.264;6.154;2023-07-20T12:19:08;29.15;;;17.73;;
47021;SDS011;32779;52.264;6.154;2023-07-20T12:21:35;27.02;;;17.35;;
47021;SDS011;32779;52.264;6.154;2023-07-20T12:24:02;31.10;;;19.90;;
47021;SDS011;32779;52.264;6.154;2023-07-20T12:26:29;27.60;;;20.50;;
47021;SDS011;32779;52.264;6.154;2023-07-20T12:28:55;26.95;;;17.00;;
47021;SDS011;32779;52.264;6.154;2023-07-20T12:31:21;26.55;;;18.58;;
47021;SDS011;32779;52.264;6.154;2023-07-20T12:33:48;29.92;;;19.02;;
47021;SDS011;32779;52.264;6.154;2023-07-20T12:36:14;29.15;;;19.25;;
47021;SDS011;32779;52.264;6.154;2023-07-20T12:38:40;25.30;;;16.48;;
47021;SDS011;32779;52.264;6.154;2023-07-20T12:41:06;30.80;;;16.85;;
47021;SDS011;32779;52.264;6.154;2023-07-20T12:43:37;24.25;;;14.65;;
47021;SDS011;32779;52.264;6.154;2023-07-20T12:46:03;26.15;;;17.25;;
47021;SDS011;32779;52.264;6.154;2023-07-20T12:48:29;26.00;;;15.85;;
47021;SDS011;32779;52.264;6.154;2023-07-20T12:50:55;25.88;;;21.10;;
47021;SDS011;32779;52.264;6.154;2023-07-20T12:53:21;24.45;;;17.02;;
47021;SDS011;32779;52.264;6.154;2023-07-20T12:55:47;23.55;;;17.50;;
47021;SDS011;32779;52.264;6.154;2023-07-20T12:58:12;22.83;;;15.95;;
47021;SDS011;32779;52.264;6.154;2023-07-20T13:00:38;27.02;;;14.30;;
47021;SDS011;32779;52.264;6.154;2023-07-20T13:03:04;23.67;;;21.17;;
47021;SDS011;32779;52.264;6.154;2023-07-20T13:05:31;23.63;;;16.88;;
47021;SDS011;32779;52.264;6.154;2023-07-20T13:07:57;26.83;;;14.75;;
47021;SDS011;32779;52.264;6.154;2023-07-20T13:10:23;21.98;;;19.17;;
47021;SDS011;32779;52.264;6.154;2023-07-20T13:12:49;22.75;;;18.42;;
47021;SDS011;32779;52.264;6.154;2023-07-20T13:15:14;23.95;;;12.30;;
47021;SDS011;32779;52.264;6.154;2023-07-20T13:17:40;26.63;;;18.88;;
47021;SDS011;32779;52.264;6.154;2023-07-20T13:20:06;26.83;;;19.85;;
47021;SDS011;32779;52.264;6.154;2023-07-20T13:22:35;22.98;;;17.67;;
47021;SDS011;32779;52.264;6.154;2023-07-20T13:25:01;25.35;;;16.80;;
47021;SDS011;32779;52.264;6.154;2023-07-20T13:27:27;25.65;;;16.50;;
47021;SDS011;32779;52.264;6.154;2023-07-20T13:29:53;25.70;;;16.40;;
47021;SDS011;32779;52.264;6.154;2023-07-20T13:32:19;28.30;;;18.60;;
47021;SDS011;32779;52.264;6.154;2023-07-20T13:34:45;25.42;;;20.33;;
47021;SDS011;32779;52.264;6.154;2023-07-20T13:37:10;25.77;;;17.65;;
47021;SDS011;32779;52.264;6.154;2023-07-20T13:39:36;26.52;;;19.02;;
47021;SDS011;32779;52.264;6.154;2023-07-20T13:42:03;26.42;;;19.67;;
47021;SDS011;32779;52.264;6.154;2023-07-20T13:44:31;27.55;;;18.08;;
47021;SDS011;32779;52.264;6.154;2023-07-20T13:46:57;30.85;;;21.17;;
47021;SDS011;32779;52.264;6.154;2023-07-20T13:49:23;28.85;;;17.17;;
47021;SDS011;32779;52.264;6.154;2023-07-20T13:51:49;27.42;;;19.33;;
47021;SDS011;32779;52.264;6.154;2023-07-20T13:54:15;25.52;;;19.23;;
47021;SDS011;32779;52.264;6.154;2023-07-20T13:56:41;25.05;;;15.30;;
47021;SDS011;32779;52.264;6.154;2023-07-20T13:59:07;27.52;;;21.52;;
47021;SDS011;32779;52.264;6.154;2023-07-20T14:01:32;27.67;;;17.35;;
47021;SDS011;32779;52.264;6.154;2023-07-20T14:03:59;26.67;;;18.45;;
47021;SDS011;32779;52.264;6.154;2023-07-20T14:06:26;28.98;;;18.77;;
47021;SDS011;32779;52.264;6.154;2023-07-20T14:08:55;30.83;;;20.73;;
47021;SDS011;32779;52.264;6.154;2023-07-20T14:11:20;26.48;;;16.17;;
47021;SDS011;32779;52.264;6.154;2023-07-20T14:13:46;29.45;;;17.35;;
47021;SDS011;32779;52.264;6.154;2023-07-20T14:16:11;24.48;;;16.75;;
47021;SDS011;32779;52.264;6.154;2023-07-20T14:18:37;27.52;;;17.33;;
47021;SDS011;32779;52.264;6.154;2023-07-20T14:21:03;29.63;;;21.17;;
47021;SDS011;32779;52.264;6.154;2023-07-20T14:23:30;38.53;;;20.38;;
47021;SDS011;32779;52.264;6.154;2023-07-20T14:25:56;30.90;;;20.73;;
47021;SDS011;32779;52.264;6.154;2023-07-20T14:28:21;33.97;;;18.42;;
47021;SDS011;32779;52.264;6.154;2023-07-20T14:30:47;30.02;;;18.80;;
47021;SDS011;32779;52.264;6.154;2023-07-20T14:33:12;27.15;;;20.75;;
47021;SDS011;32779;52.264;6.154;2023-07-20T14:35:38;33.80;;;22.60;;
47021;SDS011;32779;52.264;6.154;2023-07-20T14:38:04;29.40;;;18.05;;
47021;SDS011;32779;52.264;6.154;2023-07-20T14:40:29;29.33;;;18.60;;
47021;SDS011;32779;52.264;6.154;2023-07-20T14:42:55;31.35;;;20.10;;
47021;SDS011;32779;52.264;6.154;2023-07-20T14:45:28;31.45;;;15.77;;
47021;SDS011;32779;52.264;6.154;2023-07-20T14:47:53;36.20;;;22.73;;
47021;SDS011;32779;52.264;6.154;2023-07-20T14:50:19;31.48;;;20.38;;
47021;SDS011;32779;52.264;6.154;2023-07-20T14:52:46;31.70;;;16.50;;
47021;SDS011;32779;52.264;6.154;2023-07-20T14:55:11;32.47;;;18.38;;
47021;SDS011;32779;52.264;6.154;2023-07-20T14:57:37;32.88;;;20.80;;
47021;SDS011;32779;52.264;6.154;2023-07-20T15:00:03;31.70;;;20.67;;
47021;SDS011;32779;52.264;6.154;2023-07-20T15:02:35;31.65;;;22.00;;
47021;SDS011;32779;52.264;6.154;2023-07-20T15:05:02;33.00;;;22.45;;
47021;SDS011;32779;52.264;6.154;2023-07-20T15:07:28;33.15;;;20.88;;
47021;SDS011;32779;52.264;6.154;2023-07-20T15:09:54;30.83;;;17.98;;
47021;SDS011;32779;52.264;6.154;2023-07-20T15:12:19;32.90;;;19.35;;
47021;SDS011;32779;52.264;6.154;2023-07-20T15:14:45;31.55;;;18.45;;
47021;SDS011;32779;52.264;6.154;2023-07-20T15:17:28;35.17;;;24.92;;
47021;SDS011;32779;52.264;6.154;2023-07-20T15:19:53;33.15;;;19.40;;
47021;SDS011;32779;52.264;6.154;2023-07-20T15:22:19;29.85;;;21.77;;
47021;SDS011;32779;52.264;6.154;2023-07-20T15:24:45;37.15;;;21.10;;
47021;SDS011;32779;52.264;6.154;2023-07-20T15:27:10;32.67;;;18.58;;
47021;SDS011;32779;52.264;6.154;2023-07-20T15:29:36;31.80;;;17.63;;
47021;SDS011;32779;52.264;6.154;2023-07-20T15:32:01;32.75;;;21.58;;
47021;SDS011;32779;52.264;6.154;2023-07-20T15:34:27;29.52;;;19.63;;
47021;SDS011;32779;52.264;6.154;2023-07-20T15:36:53;35.97;;;20.67;;
47021;SDS011;32779;52.264;6.154;2023-07-20T15:39:19;33.28;;;20.58;;
47021;SDS011;32779;52.264;6.154;2023-07-20T15:41:47;31.48;;;21.73;;
47021;SDS011;32779;52.264;6.154;2023-07-20T15:44:12;29.90;;;17.45;;
47021;SDS011;32779;52.264;6.154;2023-07-20T15:49:04;36.03;;;23.75;;
47021;SDS011;32779;52.264;6.154;2023-07-20T15:51:30;35.90;;;22.23;;
47021;SDS011;32779;52.264;6.154;2023-07-20T15:53:57;32.28;;;20.58;;
47021;SDS011;32779;52.264;6.154;2023-07-20T15:56:22;31.73;;;20.67;;
47021;SDS011;32779;52.264;6.154;2023-07-20T15:58:48;31.30;;;18.73;;
47021;SDS011;32779;52.264;6.154;2023-07-20T16:01:14;31.00;;;18.02;;
47021;SDS011;32779;52.264;6.154;2023-07-20T16:03:39;33.90;;;21.42;;
47021;SDS011;32779;52.264;6.154;2023-07-20T16:06:05;36.10;;;23.13;;
47021;SDS011;32779;52.264;6.154;2023-07-20T16:08:30;31.63;;;18.70;;
47021;SDS011;32779;52.264;6.154;2023-07-20T16:10:56;32.67;;;21.45;;
47021;SDS011;32779;52.264;6.154;2023-07-20T16:13:22;30.83;;;19.73;;
47021;SDS011;32779;52.264;6.154;2023-07-20T16:15:49;30.08;;;22.15;;
47021;SDS011;32779;52.264;6.154;2023-07-20T16:18:15;33.10;;;26.85;;
47021;SDS011;32779;52.264;6.154;2023-07-20T16:20:40;29.05;;;21.35;;
47021;SDS011;32779;52.264;6.154;2023-07-20T16:23:06;34.35;;;21.77;;
47021;SDS011;32779;52.264;6.154;2023-07-20T16:25:32;31.52;;;20.55;;
47021;SDS011;32779;52.264;6.154;2023-07-20T16:27:58;31.15;;;21.55;;
47021;SDS011;32779;52.264;6.154;2023-07-20T16:30:23;37.70;;;19.63;;
47021;SDS011;32779;52.264;6.154;2023-07-20T16:32:49;37.28;;;24.25;;
47021;SDS011;32779;52.264;6.154;2023-07-20T16:35:14;35.38;;;23.52;;
47021;SDS011;32779;52.264;6.154;2023-07-20T16:37:40;34.60;;;22.02;;
47021;SDS011;32779;52.264;6.154;2023-07-20T16:40:07;31.13;;;20.23;;
47021;SDS011;32779;52.264;6.154;2023-07-20T16:42:34;33.70;;;18.98;;